Time;durP1;ratioP1;P1;durP2;ratioP2;P2;SDS_P1;SDS_P2;PMS_P1;PMS_P2;Temp;Humidity;BMP_temperature;BMP_pressure;BME280_temperature;BME280_humidity;BME280_pressure;Samples;Min_cycle;Max_cycle;Signal;HPM_P1;HPM_P2
2022/10/23 00:01:27;;;;;;;3.22;2.67;;;;;;;10.29;100.00;100964.47;5049857;28;20041;-78
2022/10/23 00:04:00;;;;;;;3.10;2.83;;;;;;;10.32;100.00;100972.28;5045113;28;20063;-75
2022/10/23 00:06:28;;;;;;;3.95;3.40;;;;;;;10.31;100.00;100971.44;5036415;28;20029;-77
2022/10/23 00:08:56;;;;;;;4.82;2.97;;;;;;;10.34;100.00;100973.13;5060257;28;20033;-75
2022/10/23 00:11:26;;;;;;;4.60;3.47;;;;;;;10.35;100.00;100970.56;5049978;28;20157;-77
2022/10/23 00:13:58;;;;;;;4.40;3.25;;;;;;;10.37;100.00;100970.56;5046218;28;20048;-77
2022/10/23 00:16:24;;;;;;;4.25;3.47;;;;;;;10.39;100.00;100974.03;5073972;28;20041;-76
2022/10/23 00:18:51;;;;;;;4.70;3.03;;;;;;;10.42;100.00;100976.66;5040937;28;20048;-76
2022/10/23 00:21:17;;;;;;;5.20;3.42;;;;;;;10.47;100.00;100976.63;5047070;28;20052;-76
2022/10/23 00:23:44;;;;;;;3.78;3.05;;;;;;;10.49;100.00;100972.28;5047521;28;20494;-77
2022/10/23 00:26:14;;;;;;;8.65;3.70;;;;;;;10.51;100.00;100979.25;5053398;28;20131;-78
2022/10/23 00:28:49;;;;;;;3.67;3.33;;;;;;;10.55;100.00;100973.13;5053757;28;20045;-75
2022/10/23 00:31:16;;;;;;;5.88;2.95;;;;;;;10.56;100.00;100974.00;5050166;28;20046;-76
2022/10/23 00:33:42;;;;;;;8.77;3.55;;;;;;;10.54;100.00;100971.38;5044124;28;20051;-77
2022/10/23 00:36:12;;;;;;;5.05;3.00;;;;;;;10.55;100.00;100974.88;5051703;28;20034;-75
2022/10/23 00:38:39;;;;;;;4.78;2.90;;;;;;;10.54;100.00;100981.84;5050687;28;20045;-76
2022/10/23 00:41:09;;;;;;;5.47;3.65;;;;;;;10.59;100.00;100973.97;5052039;28;20041;-76
2022/10/23 00:44:02;;;;;;;4.65;3.00;;;;;;;10.65;100.00;100980.94;5049480;28;20043;-75
2022/10/23 00:46:29;;;;;;;9.32;2.70;;;;;;;10.71;100.00;100981.78;5045283;28;20408;-75
2022/10/23 00:48:56;;;;;;;6.32;3.08;;;;;;;10.73;100.00;100980.03;5048626;28;20040;-76
2022/10/23 00:51:26;;;;;;;4.07;2.75;;;;;;;10.69;100.00;100975.69;5044787;28;20065;-75
2022/10/23 00:53:58;;;;;;;8.77;3.45;;;;;;;10.64;100.00;100979.19;5037171;28;20041;-75
2022/10/23 00:56:26;;;;;;;9.40;3.57;;;;;;;10.56;100.00;100961.78;5061535;28;20043;-76
2022/10/23 00:58:53;;;;;;;7.95;3.10;;;;;;;10.51;100.00;100962.69;5041808;28;20040;-75
2022/10/23 01:01:22;;;;;;;3.53;2.47;;;;;;;10.47;100.00;100963.53;5048502;28;20063;-76
2022/10/23 01:03:50;;;;;;;4.15;2.88;;;;;;;10.46;100.00;100959.22;5053795;28;20037;-75
2022/10/23 01:06:36;;;;;;;8.13;3.33;;;;;;;10.42;100.00;100958.34;5051834;28;20045;-75
2022/10/23 01:09:29;;;;;;;4.10;2.90;;;;;;;10.39;100.00;100956.59;5032493;28;20077;-76
2022/10/23 01:12:42;;;;;;;6.68;2.97;;;;;;;10.36;100.00;100948.75;5052665;28;20514;-75
2022/10/23 01:15:18;;;;;;;3.40;2.92;;;;;;;10.33;100.00;100948.72;5047706;28;20048;-80
2022/10/23 01:17:55;;;;;;;4.93;3.00;;;;;;;10.30;100.00;100948.75;5046302;28;20578;-76
2022/10/23 01:20:37;;;;;;;5.57;3.65;;;;;;;10.27;100.00;100948.75;5051646;28;20041;-77
2022/10/23 01:23:46;;;;;;;7.85;3.42;;;;;;;10.26;100.00;100954.88;5049498;28;20041;-76
2022/10/23 01:26:24;;;;;;;7.40;3.13;;;;;;;10.23;100.00;100955.75;5044298;28;20049;-79
2022/10/23 01:28:57;;;;;;;4.78;3.22;;;;;;;10.23;100.00;100954.88;5033608;28;20435;-75
2022/10/23 01:31:44;;;;;;;6.07;3.70;;;;;;;10.21;100.00;100954.03;5034170;28;20041;-76
2022/10/23 01:34:17;;;;;;;12.45;3.45;;;;;;;10.22;100.00;100946.16;5045821;28;20044;-78
2022/10/23 01:36:48;;;;;;;8.60;3.72;;;;;;;10.22;100.00;100937.41;5049337;28;20111;-76
2022/10/23 01:39:38;;;;;;;7.63;3.47;;;;;;;10.24;100.00;100938.31;5046867;28;20048;-77
2022/10/23 01:42:23;;;;;;;4.97;3.33;;;;;;;10.21;100.00;100938.31;5046778;28;20125;-77
2022/10/23 01:45:03;;;;;;;6.68;3.03;;;;;;;10.17;100.00;100934.84;5046896;28;20364;-81
2022/10/23 01:47:34;;;;;;;8.98;4.15;;;;;;;10.16;100.00;100927.00;5044511;28;20041;-76
2022/10/23 01:50:03;;;;;;;6.05;3.40;;;;;;;10.11;100.00;100921.75;5031039;28;20055;-76
2022/10/23 01:52:30;;;;;;;10.05;3.70;;;;;;;10.05;100.00;100922.66;5034670;28;20772;-76
2022/10/23 01:55:00;;;;;;;6.05;3.05;;;;;;;10.02;100.00;100921.78;5047463;28;20053;-77
2022/10/23 01:57:31;;;;;;;5.28;3.30;;;;;;;9.99;100.00;100927.91;5044288;28;20048;-77
2022/10/23 02:00:06;;;;;;;5.55;3.10;;;;;;;9.99;100.00;100929.66;5052020;28;20490;-77
2022/10/23 02:02:33;;;;;;;8.07;3.47;;;;;;;9.98;100.00;100930.53;5034676;28;20049;-76
2022/10/23 02:05:10;;;;;;;4.35;2.92;;;;;;;10.00;100.00;100933.97;5042051;28;20573;-77
2022/10/23 02:07:36;;;;;;;8.27;3.75;;;;;;;10.01;100.00;100933.13;5032426;28;20403;-78
2022/10/23 02:10:07;;;;;;;3.55;3.10;;;;;;;10.02;100.00;100925.25;5054175;28;20056;-78
2022/10/23 02:13:08;;;;;;;6.22;3.00;;;;;;;10.05;100.00;100935.75;5047042;28;20048;-77
2022/10/23 02:15:43;;;;;;;5.68;3.60;;;;;;;10.11;100.00;100934.84;5048739;28;20048;-78
2022/10/23 02:18:45;;;;;;;5.93;3.15;;;;;;;10.18;100.00;100923.50;5045032;28;20148;-78
2022/10/23 02:21:24;;;;;;;5.82;3.55;;;;;;;10.24;100.00;100917.38;5046028;28;20768;-76
2022/10/23 02:23:59;;;;;;;6.40;3.85;;;;;;;10.27;100.00;100918.22;5042570;28;20476;-77
2022/10/23 02:26:41;;;;;;;4.60;3.72;;;;;;;10.26;100.00;100908.63;5052990;28;20044;-75
2022/10/23 02:29:15;;;;;;;11.25;4.18;;;;;;;10.26;100.00;100907.78;5041949;28;20038;-80
2022/10/23 02:31:41;;;;;;;6.10;3.72;;;;;;;10.24;100.00;100913.00;5037620;28;20045;-80
2022/10/23 02:34:08;;;;;;;8.60;4.68;;;;;;;10.24;100.00;100915.59;5056055;28;20236;-76
2022/10/23 02:36:34;;;;;;;10.05;6.00;;;;;;;10.25;100.00;100911.25;5045924;28;20029;-75
2022/10/23 02:39:01;;;;;;;11.05;4.55;;;;;;;10.27;100.00;100907.78;5044377;28;20049;-76
2022/10/23 02:41:51;;;;;;;8.00;4.38;;;;;;;10.30;100.00;100904.28;5058838;28;20098;-75
2022/10/23 02:44:32;;;;;;;10.80;4.97;;;;;;;10.32;100.00;100906.88;5047681;28;20124;-77
2022/10/23 02:47:20;;;;;;;6.10;4.10;;;;;;;10.29;100.00;100899.91;5041752;28;20392;-75
2022/10/23 02:50:05;;;;;;;5.78;4.13;;;;;;;10.27;100.00;100909.50;5044063;28;20115;-76
2022/10/23 02:53:18;;;;;;;14.60;4.65;;;;;;;10.26;100.00;100908.63;5033899;28;20056;-75
2022/10/23 02:55:58;;;;;;;11.05;4.50;;;;;;;10.24;100.00;100899.06;5021213;28;20061;-75
2022/10/23 02:58:39;;;;;;;5.88;4.78;;;;;;;10.21;100.00;100899.94;5012908;28;20143;-77
2022/10/23 03:01:11;;;;;;;9.18;4.43;;;;;;;10.18;100.00;100905.19;5035919;28;20095;-75
2022/10/23 03:03:44;;;;;;;12.73;4.57;;;;;;;10.15;100.00;100902.56;5039312;28;20041;-77
2022/10/23 03:06:11;;;;;;;9.25;4.45;;;;;;;10.13;100.00;100900.81;5039387;28;20047;-78
2022/10/23 03:08:43;;;;;;;8.38;5.13;;;;;;;10.09;100.00;100894.75;5043910;28;20032;-76
2022/10/23 03:11:10;;;;;;;5.45;4.63;;;;;;;10.04;100.00;100896.50;5047007;28;20041;-76
2022/10/23 03:13:36;;;;;;;6.90;4.30;;;;;;;10.02;100.00;100890.41;5027527;28;20044;-77
2022/10/23 03:16:03;;;;;;;8.52;5.15;;;;;;;9.99;100.00;100883.44;5033748;28;20056;-77
2022/10/23 03:18:29;;;;;;;11.52;4.68;;;;;;;9.95;100.00;100871.25;5029002;28;20045;-75
2022/10/23 03:20:56;;;;;;;9.57;4.65;;;;;;;9.89;100.00;100872.13;5037336;28;20037;-76
2022/10/23 03:23:23;;;;;;;12.63;4.57;;;;;;;9.90;100.00;100867.78;5042701;28;20065;-77
2022/10/23 03:25:49;;;;;;;9.98;4.60;;;;;;;9.86;100.00;100869.53;5044092;28;20037;-77
2022/10/23 03:28:16;;;;;;;10.05;4.75;;;;;;;9.83;100.00;100869.53;5041579;28;20047;-77
2022/10/23 03:30:42;;;;;;;10.27;4.97;;;;;;;9.82;100.00;100875.63;5053931;28;20041;-77
2022/10/23 03:33:09;;;;;;;5.07;4.57;;;;;;;9.79;100.00;100872.16;5059396;28;20464;-76
2022/10/23 03:35:35;;;;;;;13.25;4.85;;;;;;;9.77;100.00;100866.94;5040268;28;20041;-77
2022/10/23 03:38:02;;;;;;;10.95;4.60;;;;;;;9.76;100.00;100868.69;5047750;28;20053;-77
2022/10/23 03:40:28;;;;;;;9.25;4.55;;;;;;;9.76;100.00;100866.06;5028454;28;20036;-76
2022/10/23 03:43:02;;;;;;;10.32;5.03;;;;;;;9.78;100.00;100858.22;5046205;28;20045;-75
2022/10/23 03:45:32;;;;;;;9.13;5.47;;;;;;;9.81;100.00;100854.72;5033386;28;20077;-76
2022/10/23 03:47:59;;;;;;;10.10;4.72;;;;;;;9.80;100.00;100864.28;5055053;28;20412;-76
2022/10/23 03:50:25;;;;;;;15.73;5.22;;;;;;;9.76;100.00;100867.78;5042003;28;20037;-75
2022/10/23 03:52:52;;;;;;;10.18;5.18;;;;;;;9.75;100.00;100853.88;5021363;28;20040;-76
2022/10/23 03:55:18;;;;;;;13.85;5.78;;;;;;;9.76;100.00;100844.28;5043020;28;20095;-78
2022/10/23 03:57:45;;;;;;;10.02;5.03;;;;;;;9.74;100.00;100848.66;5046862;28;20411;-76
2022/10/23 04:00:12;;;;;;;6.80;4.72;;;;;;;9.73;100.00;100849.50;5046052;28;20053;-79
2022/10/23 04:02:38;;;;;;;9.52;5.63;;;;;;;9.77;100.00;100848.63;5044491;28;20502;-77
2022/10/23 04:05:05;;;;;;;11.27;6.90;;;;;;;9.77;100.00;100854.72;5036004;28;20041;-79
2022/10/23 04:07:32;;;;;;;12.93;6.28;;;;;;;9.78;100.00;100855.59;5041191;28;20037;-75
2022/10/23 04:09:58;;;;;;;8.20;4.95;;;;;;;9.81;100.00;100863.44;5041987;28;20053;-76
2022/10/23 04:12:25;;;;;;;10.30;5.78;;;;;;;9.81;100.00;100863.44;5046497;28;20056;-76
2022/10/23 04:14:51;;;;;;;8.82;5.15;;;;;;;9.79;100.00;100859.97;5041238;28;20066;-78
2022/10/23 04:17:18;;;;;;;10.32;4.97;;;;;;;9.78;100.00;100868.69;5058001;28;20381;-76
2022/10/23 04:19:44;;;;;;;11.98;5.18;;;;;;;9.75;100.00;100858.22;5045558;28;20041;-76
2022/10/23 04:22:11;;;;;;;12.77;5.93;;;;;;;9.75;100.00;100855.59;5042111;28;20061;-76
2022/10/23 04:24:37;;;;;;;11.10;5.55;;;;;;;9.76;100.00;100854.72;5024448;28;20052;-75
2022/10/23 04:27:04;;;;;;;9.88;5.50;;;;;;;9.76;100.00;100854.72;5048834;28;20061;-77
2022/10/23 04:29:31;;;;;;;10.90;6.20;;;;;;;9.73;100.00;100855.59;5048680;28;20037;-78
2022/10/23 04:31:58;;;;;;;6.60;5.25;;;;;;;9.73;100.00;100854.75;5050544;28;20071;-77
2022/10/23 04:34:24;;;;;;;10.63;5.28;;;;;;;9.72;100.00;100850.38;5048444;28;20061;-78
2022/10/23 04:36:51;;;;;;;9.27;5.65;;;;;;;9.73;100.00;100854.75;5045206;28;20048;-77
2022/10/23 04:39:17;;;;;;;7.43;4.88;;;;;;;9.71;100.00;100851.25;5045626;28;20124;-76
2022/10/23 04:41:44;;;;;;;7.88;4.70;;;;;;;9.68;100.00;100838.19;5047164;28;20044;-75
2022/10/23 04:44:10;;;;;;;7.30;5.07;;;;;;;9.68;100.00;100844.28;5056116;28;20068;-77
2022/10/23 04:46:37;;;;;;;8.93;4.63;;;;;;;9.68;100.00;100851.28;5051055;28;20119;-77
2022/10/23 04:49:03;;;;;;;10.85;4.82;;;;;;;9.64;100.00;100852.16;5054192;28;20471;-78
2022/10/23 04:51:30;;;;;;;7.65;4.72;;;;;;;9.60;100.00;100848.66;5050703;28;20377;-76
2022/10/23 04:53:56;;;;;;;7.45;5.07;;;;;;;9.63;100.00;100853.03;5036349;28;20037;-79
2022/10/23 04:56:23;;;;;;;8.93;5.60;;;;;;;9.64;100.00;100844.31;5044794;28;20048;-75
2022/10/23 04:58:50;;;;;;;10.98;5.53;;;;;;;9.64;100.00;100852.16;5040322;28;20045;-77
2022/10/23 05:01:16;;;;;;;11.25;4.80;;;;;;;9.66;100.00;100850.38;5051937;28;20042;-77
2022/10/23 05:03:43;;;;;;;12.10;5.85;;;;;;;9.63;100.00;100853.03;5046349;28;20056;-79
2022/10/23 05:06:09;;;;;;;14.13;5.50;;;;;;;9.61;100.00;100853.03;5035082;28;20037;-77
2022/10/23 05:08:36;;;;;;;10.70;5.78;;;;;;;9.60;100.00;100843.44;5047695;28;20041;-76
2022/10/23 05:11:03;;;;;;;12.63;5.53;;;;;;;9.58;100.00;100840.84;5051098;28;20055;-76
2022/10/23 05:13:29;;;;;;;10.18;5.60;;;;;;;9.56;100.00;100842.56;5062255;28;20040;-77
2022/10/23 05:15:59;;;;;;;11.20;4.45;;;;;;;9.54;100.00;100844.34;5044199;28;20044;-77
2022/10/23 05:18:40;;;;;;;8.90;4.78;;;;;;;9.52;100.00;100851.28;5049275;28;20037;-78
2022/10/23 05:21:15;;;;;;;8.23;5.20;;;;;;;9.52;100.00;100855.66;5047567;28;20053;-76
2022/10/23 05:23:44;;;;;;;7.72;4.43;;;;;;;9.50;100.00;100844.31;5041568;28;20744;-78
2022/10/23 05:26:11;;;;;;;11.55;4.90;;;;;;;9.48;100.00;100848.66;5044586;28;20144;-75
2022/10/23 05:28:37;;;;;;;8.88;4.75;;;;;;;9.47;100.00;100832.13;5042425;28;20060;-75
2022/10/23 05:31:06;;;;;;;7.78;4.57;;;;;;;9.44;100.00;100830.41;5048327;28;20052;-80
2022/10/23 05:33:33;;;;;;;8.63;5.13;;;;;;;9.43;100.00;100833.00;5055216;28;20052;-79
2022/10/23 05:36:00;;;;;;;10.23;4.93;;;;;;;9.40;100.00;100828.66;5038761;28;20042;-78
2022/10/23 05:38:29;;;;;;;10.05;5.30;;;;;;;9.40;100.00;100830.41;5049420;28;20571;-75
2022/10/23 05:40:55;;;;;;;6.90;5.13;;;;;;;9.38;100.00;100822.56;5045566;28;20385;-78
2022/10/23 05:43:22;;;;;;;6.18;5.05;;;;;;;9.41;100.00;100829.53;5052554;28;20799;-75
2022/10/23 05:45:49;;;;;;;9.95;5.13;;;;;;;9.41;100.00;100829.53;5053662;28;20037;-76
2022/10/23 05:48:16;;;;;;;6.22;3.83;;;;;;;9.42;100.00;100831.28;5049421;28;20460;-78
2022/10/23 05:50:42;;;;;;;6.80;4.78;;;;;;;9.41;100.00;100825.19;5047339;28;20049;-76
2022/10/23 05:53:12;;;;;;;11.57;6.40;;;;;;;9.43;100.00;100819.94;5042773;28;20044;-76
2022/10/23 05:55:38;;;;;;;8.57;4.38;;;;;;;9.43;100.00;100819.94;5057715;28;20051;-77
2022/10/23 05:58:05;;;;;;;7.40;4.50;;;;;;;9.41;100.00;100819.97;5046471;28;20041;-77
2022/10/23 06:00:32;;;;;;;11.68;5.28;;;;;;;9.43;100.00;100820.81;5046644;28;20048;-78
2022/10/23 06:03:03;;;;;;;9.30;4.70;;;;;;;9.43;100.00;100815.59;5056521;28;20049;-76
2022/10/23 06:05:29;;;;;;;10.65;5.22;;;;;;;9.44;100.00;100813.88;5042733;28;20049;-76
2022/10/23 06:07:59;;;;;;;10.13;5.22;;;;;;;9.43;100.00;100812.97;5052164;28;20036;-76
2022/10/23 06:10:27;;;;;;;8.10;5.40;;;;;;;9.42;100.00;100824.28;5039488;28;20064;-76
2022/10/23 06:12:53;;;;;;;10.02;4.50;;;;;;;9.41;100.00;100817.34;5026888;28;20132;-76
2022/10/23 06:15:20;;;;;;;8.35;4.80;;;;;;;9.41;100.00;100819.06;5042423;28;20052;-76
2022/10/23 06:17:46;;;;;;;7.22;4.45;;;;;;;9.39;100.00;100823.44;5043426;28;20042;-76
2022/10/23 06:20:13;;;;;;;7.25;4.18;;;;;;;9.41;100.00;100822.56;5045868;28;20041;-78
2022/10/23 06:22:39;;;;;;;8.38;4.25;;;;;;;9.43;100.00;100819.94;5044811;28;20496;-80
2022/10/23 06:25:07;;;;;;;9.75;4.88;;;;;;;9.41;100.00;100819.97;5040831;28;20053;-77
2022/10/23 06:27:33;;;;;;;10.35;4.78;;;;;;;9.42;100.00;100813.84;5027116;28;20041;-78
2022/10/23 06:30:00;;;;;;;9.05;4.68;;;;;;;9.43;100.00;100820.81;5039761;28;20040;-76
2022/10/23 06:32:26;;;;;;;10.65;5.00;;;;;;;9.45;100.00;100810.34;5061879;28;20043;-78
2022/10/23 06:34:53;;;;;;;7.68;4.55;;;;;;;9.47;100.00;100811.22;5050950;28;20044;-78
2022/10/23 06:37:19;;;;;;;7.88;4.55;;;;;;;9.50;100.00;100813.81;5041479;28;20045;-79
2022/10/23 06:39:46;;;;;;;5.55;4.53;;;;;;;9.53;100.00;100812.94;5044847;28;20507;-76
2022/10/23 06:42:12;;;;;;;12.77;4.90;;;;;;;9.55;100.00;100812.06;5034587;28;20045;-77
2022/10/23 06:44:39;;;;;;;10.45;5.32;;;;;;;9.60;100.00;100806.84;5041779;28;20034;-76
2022/10/23 06:47:05;;;;;;;7.00;4.68;;;;;;;9.66;100.00;100801.63;5047912;28;20053;-76
2022/10/23 06:49:32;;;;;;;7.20;4.43;;;;;;;9.72;100.00;100803.31;5037726;28;20033;-78
2022/10/23 06:51:58;;;;;;;7.63;5.20;;;;;;;9.79;100.00;100804.19;5034365;28;20037;-76
2022/10/23 06:54:25;;;;;;;5.65;4.72;;;;;;;9.85;100.00;100797.19;5046934;28;20392;-76
2022/10/23 06:56:52;;;;;;;10.02;4.25;;;;;;;9.94;100.00;100789.28;5051184;28;20037;-76
2022/10/23 06:59:19;;;;;;;6.07;4.00;;;;;;;10.04;100.00;100794.50;5041416;28;20098;-76
2022/10/23 07:01:45;;;;;;;4.03;3.70;;;;;;;10.10;100.00;100784.00;5044346;28;20132;-75
2022/10/23 07:04:13;;;;;;;7.38;3.80;;;;;;;10.17;100.00;100790.06;5035931;28;20439;-76
2022/10/23 07:06:40;;;;;;;7.60;5.32;;;;;;;10.23;100.00;100787.41;5041985;28;20080;-76
2022/10/23 07:09:08;;;;;;;14.60;8.10;;;;;;;10.32;100.00;100789.97;5049705;28;20064;-75
2022/10/23 07:11:34;;;;;;;9.25;5.20;;;;;;;10.42;100.00;100786.47;5053646;28;20040;-80
2022/10/23 07:14:01;;;;;;;6.43;4.57;;;;;;;10.54;100.00;100782.91;5050614;28;20044;-75
2022/10/23 07:16:27;;;;;;;5.10;3.80;;;;;;;10.67;100.00;100786.31;5031294;28;20045;-75
2022/10/23 07:18:58;;;;;;;5.03;3.50;;;;;;;10.80;100.00;100787.09;5026804;28;20371;-77
2022/10/23 07:21:26;;;;;;;9.13;4.20;;;;;;;10.93;100.00;100783.47;5064324;28;20471;-76
2022/10/23 07:23:52;;;;;;;8.15;3.38;;;;;;;11.08;100.00;100779.88;5047820;28;20847;-75
2022/10/23 07:26:19;;;;;;;10.88;2.95;;;;;;;11.24;100.00;100777.13;5062640;28;20472;-74
2022/10/23 07:28:49;;;;;;;9.18;3.40;;;;;;;11.36;100.00;100776.97;5043061;28;20053;-78
2022/10/23 07:31:15;;;;;;;3.92;2.50;;;;;;;11.45;100.00;100773.41;5052128;28;20128;-76
2022/10/23 07:33:42;;;;;;;7.00;2.05;;;;;;;11.55;100.00;100768.91;5040511;28;20056;-76
2022/10/23 07:36:10;;;;;;;9.15;3.42;;;;;;;11.62;100.00;100773.22;5041389;28;20110;-77
2022/10/23 07:38:36;;;;;;;9.10;3.25;;;;;;;11.68;100.00;100769.63;5039063;28;20044;-75
2022/10/23 07:41:03;;;;;;;8.77;3.10;;;;;;;11.75;100.00;100781.81;5065364;28;20052;-75
2022/10/23 07:43:30;;;;;;;3.53;2.88;;;;;;;11.82;100.00;100779.97;5038236;28;20140;-76
2022/10/23 07:45:56;;;;;;;8.82;2.60;;;;;;;11.86;100.00;100779.03;5032586;28;20045;-77
2022/10/23 07:48:23;;;;;;;6.20;2.78;;;;;;;11.89;100.00;100773.78;5047776;28;20045;-77
2022/10/23 07:50:51;;;;;;;2.78;2.00;;;;;;;11.94;100.00;100774.56;5050534;28;20041;-76
2022/10/23 07:53:20;;;;;;;8.02;2.60;;;;;;;12.00;100.00;100765.78;5053508;28;20050;-75
2022/10/23 07:55:56;;;;;;;6.30;1.80;;;;;;;12.03;100.00;100768.38;5023496;28;20527;-76
2022/10/23 07:58:24;;;;;;;3.15;2.53;;;;;;;12.06;100.00;100771.81;5038773;28;20037;-77
2022/10/23 08:00:59;;;;;;;4.30;2.42;;;;;;;12.12;100.00;100775.25;5052109;28;20056;-77
2022/10/23 08:03:28;;;;;;;4.55;3.03;;;;;;;12.17;100.00;100768.19;5053410;28;20458;-75
2022/10/23 08:05:55;;;;;;;4.20;2.83;;;;;;;12.22;100.00;100761.13;5051893;28;20037;-76
2022/10/23 08:08:25;;;;;;;1.85;1.63;;;;;;;12.27;100.00;100761.94;5051679;28;20041;-75
2022/10/23 08:10:55;;;;;;;2.65;2.10;;;;;;;12.32;100.00;100762.72;5050452;28;20537;-75
2022/10/23 08:13:22;;;;;;;4.00;2.33;;;;;;;12.35;100.00;100757.44;5050545;28;20048;-76
2022/10/23 08:15:51;;;;;;;4.95;1.85;;;;;;;12.38;100.00;100754.78;5048293;28;20400;-75
2022/10/23 08:18:18;;;;;;;2.60;1.70;;;;;;;12.42;100.00;100758.19;5058733;28;20053;-76
2022/10/23 08:20:47;;;;;;;5.60;2.13;;;;;;;12.46;100.00;100754.63;5031478;28;20033;-76
2022/10/23 08:23:17;;;;;;;4.78;1.67;;;;;;;12.50;100.00;100755.47;5033925;28;20056;-77
2022/10/23 08:25:44;;;;;;;2.13;1.80;;;;;;;12.57;100.00;100757.13;5025344;28;20590;-78
2022/10/23 08:28:11;;;;;;;10.07;2.45;;;;;;;12.63;100.00;100753.50;5036017;28;20514;-76
2022/10/23 08:30:38;;;;;;;5.07;2.50;;;;;;;12.66;100.00;100756.97;5028201;28;20045;-77
2022/10/23 08:33:06;;;;;;;3.13;1.60;;;;;;;12.73;100.00;100768.25;5043731;28;20046;-76
2022/10/23 08:35:39;;;;;;;2.05;1.67;;;;;;;12.83;100.00;100767.19;5041823;28;20048;-76
2022/10/23 08:38:07;;;;;;;9.65;3.47;;;;;;;12.86;100.00;100763.66;5045455;28;20060;-76
2022/10/23 08:40:35;;;;;;;2.85;2.08;;;;;;;12.96;100.00;100754.72;5045793;28;20471;-79
2022/10/23 08:43:15;;;;;;;4.40;2.22;;;;;;;13.06;100.00;100758.94;5030979;28;20037;-76
2022/10/23 08:46:08;;;;;;;5.15;2.00;;;;;;;13.16;100.00;100753.50;5053551;28;20090;-76
2022/10/23 08:48:44;;;;;;;7.32;2.63;;;;;;;13.23;100.00;100748.13;5047138;28;20045;-77
2022/10/23 08:51:25;;;;;;;4.68;1.70;;;;;;;13.33;100.00;100740.91;5055805;28;20040;-76
2022/10/23 08:54:21;;;;;;;3.72;2.00;;;;;;;13.43;100.00;100736.38;5027053;28;20040;-80
2022/10/23 08:57:16;;;;;;;3.60;1.65;;;;;;;13.52;100.00;100736.19;5048846;28;20037;-78
2022/10/23 08:59:58;;;;;;;4.18;1.95;;;;;;;13.66;100.00;100727.16;5043710;28;20530;-79
2022/10/23 09:02:29;;;;;;;2.97;1.60;;;;;;;13.81;100.00;100736.50;5021296;28;20072;-77
2022/10/23 09:04:58;;;;;;;8.60;1.92;;;;;;;13.88;100.00;100736.34;5045326;28;20041;-76
2022/10/23 09:08:03;;;;;;;6.53;1.88;;;;;;;13.94;100.00;100731.84;5048201;28;20135;-75
2022/10/23 09:10:59;;;;;;;5.93;2.00;;;;;;;14.06;100.00;100723.66;5045624;28;20521;-75
2022/10/23 09:14:18;;;;;;;5.45;2.42;;;;;;;14.07;100.00;100734.16;5053644;28;20087;-77
2022/10/23 09:17:33;;;;;;;5.18;2.08;;;;;;;14.17;100.00;100726.06;5045795;28;20053;-78
2022/10/23 09:20:21;;;;;;;5.30;1.80;;;;;;;14.20;100.00;100726.00;5064524;28;20598;-78
2022/10/23 09:22:54;;;;;;;1.73;1.42;;;;;;;14.25;100.00;100728.50;5048546;28;20057;-79
2022/10/23 09:25:34;;;;;;;3.70;1.45;;;;;;;14.33;100.00;100743.25;5049348;28;20045;-77
2022/10/23 09:28:02;;;;;;;2.42;2.00;;;;;;;14.42;100.00;100738.66;5030569;28;20033;-77
2022/10/23 09:30:42;;;;;;;4.28;1.38;;;;;;;14.53;100.00;100755.94;5048244;28;20036;-77
2022/10/23 09:33:17;;;;;;;6.45;1.48;;;;;;;14.68;100.00;100746.84;5050185;28;20050;-77
2022/10/23 09:36:07;;;;;;;6.13;1.98;;;;;;;14.82;100.00;100745.63;5044735;28;20045;-78
2022/10/23 09:38:57;;;;;;;6.90;1.77;;;;;;;14.87;100.00;100743.75;5051873;28;20531;-81
2022/10/23 09:41:37;;;;;;;3.40;1.88;;;;;;;14.88;100.00;100740.22;5047033;28;20049;-79
2022/10/23 09:44:29;;;;;;;4.40;1.80;;;;;;;14.91;100.00;100742.75;5051185;28;20045;-78
2022/10/23 09:47:09;;;;;;;3.15;1.92;;;;;;;15.01;100.00;100732.84;5044871;28;20048;-77
2022/10/23 09:49:41;;;;;;;5.03;2.22;;;;;;;15.09;100.00;100727.38;5042378;28;20451;-76
2022/10/23 09:52:10;;;;;;;6.20;1.67;;;;;;;15.11;100.00;100728.19;5062093;28;20144;-75
2022/10/23 09:54:39;;;;;;;4.32;1.70;;;;;;;15.08;100.00;100734.41;5044688;28;20048;-76
2022/10/23 09:57:37;;;;;;;6.47;2.03;;;;;;;15.01;100.00;100730.22;5046904;28;20052;-78
2022/10/23 10:00:25;;;;;;;5.18;1.60;;;;;;;15.03;100.00;100733.66;5035284;28;20364;-76
2022/10/23 10:03:05;;;;;;;7.05;1.75;;;;;;;15.13;100.00;100735.16;5034722;28;20403;-76
2022/10/23 10:05:37;;;;;;;3.88;1.75;;;;;;;15.18;100.00;100725.34;5041642;28;20128;-77
2022/10/23 10:08:24;;;;;;;2.83;2.10;;;;;;;15.23;100.00;100722.59;5047113;28;20094;-77
2022/10/23 10:10:56;;;;;;;4.25;1.80;;;;;;;15.27;100.00;100723.38;5041224;28;20528;-77
2022/10/23 10:13:36;;;;;;;2.63;1.60;;;;;;;15.33;100.00;100720.56;5044480;28;20040;-76
2022/10/23 10:16:27;;;;;;;2.70;1.38;;;;;;;15.41;98.50;100713.31;5046631;28;20048;-75
2022/10/23 10:19:10;;;;;;;4.45;1.30;;;;;;;15.43;99.61;100708.84;5032758;28;20720;-76
2022/10/23 10:22:11;;;;;;;2.97;1.40;;;;;;;15.52;99.13;100707.72;5036702;28;20119;-76
2022/10/23 10:25:03;;;;;;;4.47;1.42;;;;;;;15.46;99.24;100695.59;5031152;28;20044;-76
2022/10/23 10:27:56;;;;;;;4.75;2.35;;;;;;;15.46;99.69;100678.88;5054207;28;20119;-76
2022/10/23 10:30:24;;;;;;;4.57;1.40;;;;;;;15.41;99.04;100681.66;5040408;28;20063;-77
2022/10/23 10:33:02;;;;;;;3.78;1.48;;;;;;;15.34;100.00;100674.81;5028840;28;20041;-76
2022/10/23 10:35:39;;;;;;;3.97;1.50;;;;;;;15.31;100.00;100669.63;5039484;28;20378;-75
2022/10/23 10:38:28;;;;;;;2.20;1.38;;;;;;;15.34;100.00;100678.34;5022575;28;20396;-76
2022/10/23 10:41:36;;;;;;;3.33;1.40;;;;;;;15.41;99.68;100668.47;5045928;28;20045;-77
2022/10/23 10:44:52;;;;;;;4.88;1.60;;;;;;;15.59;99.28;100666.19;5043848;28;20049;-79
2022/10/23 10:47:46;;;;;;;1.02;0.90;;;;;;;15.85;97.93;100662.78;5045372;28;20055;-76
2022/10/23 10:50:29;;;;;;;1.88;1.08;;;;;;;16.09;95.05;100655.88;5047244;28;20037;-75
2022/10/23 10:53:16;;;;;;;1.55;1.45;;;;;;;16.27;93.83;100657.09;5053737;28;20139;-76
2022/10/23 10:55:43;;;;;;;4.20;1.33;;;;;;;16.35;89.08;100652.41;5045947;28;20037;-75
2022/10/23 10:58:21;;;;;;;3.00;1.20;;;;;;;16.37;88.86;100642.66;5041227;28;20048;-79
2022/10/23 11:00:56;;;;;;;3.83;1.70;;;;;;;16.42;88.35;100642.47;5025137;28;20060;-75
2022/10/23 11:03:35;;;;;;;4.25;1.40;;;;;;;16.48;88.48;100639.66;5046440;28;20135;-79
2022/10/23 11:06:05;;;;;;;1.58;1.05;;;;;;;16.54;87.85;100642.09;5035523;28;20803;-76
2022/10/23 11:08:41;;;;;;;4.78;1.63;;;;;;;16.67;86.22;100639.00;5053062;28;20037;-76
2022/10/23 11:11:14;;;;;;;4.47;1.23;;;;;;;16.82;85.09;100649.06;5044376;28;20041;-76
2022/10/23 11:13:44;;;;;;;1.77;1.42;;;;;;;16.91;85.15;100639.09;5045617;28;20037;-78
2022/10/23 11:16:22;;;;;;;5.50;2.38;;;;;;;17.10;84.48;100624.28;5047431;28;20051;-79
2022/10/23 11:19:06;;;;;;;4.35;1.13;;;;;;;17.23;82.78;100626.50;5046238;28;20041;-77
2022/10/23 11:22:11;;;;;;;2.47;1.15;;;;;;;17.31;81.82;100621.78;5046315;28;20045;-79
2022/10/23 11:24:56;;;;;;;2.45;0.70;;;;;;;17.29;81.45;100613.03;5032092;28;20045;-75
2022/10/23 11:27:31;;;;;;;2.25;1.08;;;;;;;17.42;81.48;100610.81;5048374;28;20507;-78
2022/10/23 11:30:19;;;;;;;1.55;0.80;;;;;;;17.49;80.74;100613.13;5041172;28;20477;-80
2022/10/23 11:33:20;;;;;;;1.85;1.02;;;;;;;17.46;80.58;100597.38;5036049;28;20076;-77
2022/10/23 11:36:12;;;;;;;2.25;0.90;;;;;;;17.48;80.75;100599.97;5032875;28;20545;-78
2022/10/23 11:38:42;;;;;;;4.68;1.15;;;;;;;17.50;80.58;100585.75;5037088;28;20147;-78
2022/10/23 11:41:28;;;;;;;2.47;0.80;;;;;;;17.69;79.80;100590.31;5048020;28;20041;-76
2022/10/23 11:44:00;;;;;;;4.22;1.02;;;;;;;17.76;78.39;100589.16;5047538;28;20526;-76
2022/10/23 11:46:26;;;;;;;2.60;1.10;;;;;;;17.79;78.21;100586.38;5044707;28;20064;-76
2022/10/23 11:48:55;;;;;;;3.47;1.45;;;;;;;17.85;78.34;100578.19;5055344;28;20381;-76